KDRM

Drummond Island Airport

Drummond Island, Michigan, USA
METAR KDRM 220356Z AUTO 00000KT 10SM CLR M21/M23 A3049 RMK AO2 T12081232
Observed Flight Rules
Jan-22 @ 03:56 UTC (19 minutes ago) Visual Flight Rules
Visibility Clouds
10 miles
  • Clear skies
Temperatures Readings
Current -21°C / -6°F
Dewpoint -23°C / -9°F
Humidity 84%
Altimeter 30.49" Hg
Pressure 1032.51 hPa
Elevation 204
METAR KDRM 220356Z AUTO 00000KT 10SM CLR M21/M23 A3049 RMK AO2 T12081232
Observed Flight Rules
Jan-22 @ 03:56 UTC
(19 minutes ago)
VFR
Clouds
  • Clear skies
Temperature Dewpoint
-21°C / -6°F -23°C / -9°F
Humidity Altimeter Pressure
84% 30.49" Hg 1032.51 hPa